Rio Grande City, Texas
Current Conditions -  °F | °C
As of 7:33 AM on Wednesday 22 Oct 2014 (Local Time) from KMFE Reporting Station
Broken Clouds Broken Clouds  
Wind Chill: 72°   Ceiling: 2700
Heat Index: 72°   Visibility: 9mi
Dew Point: 70°   Wind: 6mph
Humidity: 94%   Direction: 10°N
Pressure: 29.98"   Gusts: NA
Location:  26.38°N, 98.81°W
Report Text: KMFE 221233Z 01005KT 9SM BKN027 BKN031 22/21 A2998 RMK AO2
Loading
Personal Weather Stations






























Interactive Weather Map
Tropical Storm Tracking
New forecast layout! Learn more

10-Day Weather Forecast

Advertisements
Track Severe Weather on mobile